sensor_id;sensor_type;location;lat;lon;timestamp;pressure;altitude;pressure_sealevel;temperature;humidity
3260;BME280;68938;48.150;14.004;2023-05-09T00:01:23;98528.84;;;14.49;45.77
3260;BME280;68938;48.150;14.004;2023-05-09T00:03:50;98528.44;;;14.59;44.85
3260;BME280;68938;48.150;14.004;2023-05-09T00:06:17;98520.75;;;14.36;45.53
3260;BME280;68938;48.150;14.004;2023-05-09T00:08:44;98525.16;;;14.56;45.41
3260;BME280;68938;48.150;14.004;2023-05-09T00:11:11;98529.38;;;14.13;45.51
3260;BME280;68938;48.150;14.004;2023-05-09T00:13:38;98517.25;;;14.15;46.09
3260;BME280;68938;48.150;14.004;2023-05-09T00:16:05;98521.47;;;13.94;46.16
3260;BME280;68938;48.150;14.004;2023-05-09T00:18:32;98526.63;;;13.94;46.34
3260;BME280;68938;48.150;14.004;2023-05-09T00:20:59;98521.06;;;13.83;46.95
3260;BME280;68938;48.150;14.004;2023-05-09T00:23:26;98521.56;;;13.92;46.78
3260;BME280;68938;48.150;14.004;2023-05-09T00:25:53;98513.63;;;13.97;46.17
3260;BME280;68938;48.150;14.004;2023-05-09T00:28:20;98509.56;;;14.13;46.46
3260;BME280;68938;48.150;14.004;2023-05-09T00:30:47;98510.22;;;14.18;45.98
3260;BME280;68938;48.150;14.004;2023-05-09T00:33:14;98511.47;;;13.86;46.55
3260;BME280;68938;48.150;14.004;2023-05-09T00:35:41;98510.03;;;14.01;46.40
3260;BME280;68938;48.150;14.004;2023-05-09T00:38:07;98511.13;;;13.95;46.33
3260;BME280;68938;48.150;14.004;2023-05-09T00:40:34;98513.28;;;14.06;46.06
3260;BME280;68938;48.150;14.004;2023-05-09T00:43:01;98508.91;;;14.08;45.88
3260;BME280;68938;48.150;14.004;2023-05-09T00:45:29;98509.31;;;13.97;46.08
3260;BME280;68938;48.150;14.004;2023-05-09T00:47:56;98504.34;;;13.69;47.26
3260;BME280;68938;48.150;14.004;2023-05-09T00:50:23;98498.25;;;13.72;46.98
3260;BME280;68938;48.150;14.004;2023-05-09T00:52:50;98495.44;;;13.55;47.01
3260;BME280;68938;48.150;14.004;2023-05-09T00:55:18;98486.94;;;13.27;47.49
3260;BME280;68938;48.150;14.004;2023-05-09T00:57:45;98475.16;;;13.20;48.12
3260;BME280;68938;48.150;14.004;2023-05-09T01:00:12;98482.03;;;13.20;47.85
3260;BME280;68938;48.150;14.004;2023-05-09T01:02:41;98484.94;;;13.11;48.21
3260;BME280;68938;48.150;14.004;2023-05-09T01:05:10;98483.09;;;13.39;47.11
3260;BME280;68938;48.150;14.004;2023-05-09T01:08:06;98470.81;;;13.46;47.55
3260;BME280;68938;48.150;14.004;2023-05-09T01:10:55;98475.22;;;13.44;47.54
3260;BME280;68938;48.150;14.004;2023-05-09T01:13:32;98470.94;;;13.18;47.73
3260;BME280;68938;48.150;14.004;2023-05-09T01:16:22;98478.88;;;12.87;48.26
3260;BME280;68938;48.150;14.004;2023-05-09T01:19:00;98478.78;;;12.90;48.27
3260;BME280;68938;48.150;14.004;2023-05-09T01:21:31;98472.81;;;12.63;48.96
3260;BME280;68938;48.150;14.004;2023-05-09T01:30:15;98478.69;;;12.66;48.12
3260;BME280;68938;48.150;14.004;2023-05-09T01:32:45;98485.03;;;12.56;48.51
3260;BME280;68938;48.150;14.004;2023-05-09T01:35:15;98484.25;;;12.54;49.34
3260;BME280;68938;48.150;14.004;2023-05-09T01:37:43;98475.38;;;12.36;49.25
3260;BME280;68938;48.150;14.004;2023-05-09T01:40:16;98475.13;;;12.44;49.50
3260;BME280;68938;48.150;14.004;2023-05-09T01:42:56;98473.28;;;12.49;49.43
3260;BME280;68938;48.150;14.004;2023-05-09T01:45:26;98473.47;;;12.43;49.25
3260;BME280;68938;48.150;14.004;2023-05-09T01:47:55;98471.25;;;12.30;49.04
3260;BME280;68938;48.150;14.004;2023-05-09T01:50:24;98460.50;;;12.46;49.83
3260;BME280;68938;48.150;14.004;2023-05-09T01:52:54;98465.66;;;12.71;48.91
3260;BME280;68938;48.150;14.004;2023-05-09T01:55:25;98458.31;;;12.60;48.69
3260;BME280;68938;48.150;14.004;2023-05-09T01:57:54;98473.56;;;12.40;48.74
3260;BME280;68938;48.150;14.004;2023-05-09T02:00:23;98471.06;;;12.37;49.54
3260;BME280;68938;48.150;14.004;2023-05-09T02:02:51;98467.63;;;12.38;49.54
3260;BME280;68938;48.150;14.004;2023-05-09T02:05:20;98474.81;;;12.26;49.50
3260;BME280;68938;48.150;14.004;2023-05-09T02:07:49;98471.63;;;12.46;49.71
3260;BME280;68938;48.150;14.004;2023-05-09T02:10:16;98468.47;;;12.38;49.33
3260;BME280;68938;48.150;14.004;2023-05-09T02:12:45;98474.94;;;12.50;49.32
3260;BME280;68938;48.150;14.004;2023-05-09T02:15:12;98461.63;;;12.37;49.38
3260;BME280;68938;48.150;14.004;2023-05-09T02:17:39;98464.03;;;12.15;49.89
3260;BME280;68938;48.150;14.004;2023-05-09T02:20:07;98465.59;;;12.21;50.03
3260;BME280;68938;48.150;14.004;2023-05-09T02:22:35;98449.28;;;12.20;50.19
3260;BME280;68938;48.150;14.004;2023-05-09T02:25:05;98456.28;;;11.89;50.45
3260;BME280;68938;48.150;14.004;2023-05-09T02:27:33;98440.56;;;12.26;50.05
3260;BME280;68938;48.150;14.004;2023-05-09T02:30:03;98446.88;;;12.16;49.64
3260;BME280;68938;48.150;14.004;2023-05-09T02:32:36;98455.88;;;12.29;49.77
3260;BME280;68938;48.150;14.004;2023-05-09T02:35:06;98454.81;;;12.36;49.62
3260;BME280;68938;48.150;14.004;2023-05-09T02:37:35;98446.84;;;12.17;50.04
3260;BME280;68938;48.150;14.004;2023-05-09T02:40:05;98439.59;;;12.02;50.99
3260;BME280;68938;48.150;14.004;2023-05-09T02:42:34;98447.75;;;11.57;51.60
3260;BME280;68938;48.150;14.004;2023-05-09T02:45:01;98454.59;;;11.88;51.17
3260;BME280;68938;48.150;14.004;2023-05-09T02:47:28;98461.16;;;11.98;51.00
3260;BME280;68938;48.150;14.004;2023-05-09T02:49:55;98463.22;;;12.13;50.05
3260;BME280;68938;48.150;14.004;2023-05-09T02:52:22;98464.94;;;12.14;49.99
3260;BME280;68938;48.150;14.004;2023-05-09T02:54:48;98472.16;;;12.29;49.83
3260;BME280;68938;48.150;14.004;2023-05-09T02:57:15;98469.59;;;12.29;49.43
3260;BME280;68938;48.150;14.004;2023-05-09T02:59:42;98466.75;;;12.37;49.22
3260;BME280;68938;48.150;14.004;2023-05-09T03:02:09;98470.16;;;12.39;48.98
3260;BME280;68938;48.150;14.004;2023-05-09T03:04:36;98468.06;;;12.50;49.30
3260;BME280;68938;48.150;14.004;2023-05-09T03:07:03;98474.59;;;12.61;48.93
3260;BME280;68938;48.150;14.004;2023-05-09T03:09:30;98474.75;;;12.56;49.03
3260;BME280;68938;48.150;14.004;2023-05-09T03:11:56;98468.00;;;12.25;48.90
3260;BME280;68938;48.150;14.004;2023-05-09T03:14:23;98460.69;;;12.40;49.25
3260;BME280;68938;48.150;14.004;2023-05-09T03:16:50;98457.00;;;12.48;49.25
3260;BME280;68938;48.150;14.004;2023-05-09T03:19:17;98460.53;;;12.18;49.55
3260;BME280;68938;48.150;14.004;2023-05-09T03:21:44;98461.84;;;12.31;49.47
3260;BME280;68938;48.150;14.004;2023-05-09T03:24:12;98451.53;;;12.04;50.12
3260;BME280;68938;48.150;14.004;2023-05-09T03:26:39;98450.84;;;11.68;51.00
3260;BME280;68938;48.150;14.004;2023-05-09T03:29:06;98460.53;;;11.60;51.60
3260;BME280;68938;48.150;14.004;2023-05-09T03:31:33;98452.97;;;11.83;50.69
3260;BME280;68938;48.150;14.004;2023-05-09T03:34:01;98461.06;;;12.01;50.41
3260;BME280;68938;48.150;14.004;2023-05-09T03:36:27;98458.00;;;12.16;49.89
3260;BME280;68938;48.150;14.004;2023-05-09T03:38:54;98458.75;;;12.20;49.99
3260;BME280;68938;48.150;14.004;2023-05-09T03:41:21;98457.00;;;11.92;50.50
3260;BME280;68938;48.150;14.004;2023-05-09T03:43:48;98458.41;;;12.04;50.08
3260;BME280;68938;48.150;14.004;2023-05-09T03:46:15;98452.53;;;11.99;50.00
3260;BME280;68938;48.150;14.004;2023-05-09T03:48:42;98454.75;;;11.81;51.33
3260;BME280;68938;48.150;14.004;2023-05-09T03:51:09;98458.25;;;11.49;51.76
3260;BME280;68938;48.150;14.004;2023-05-09T03:53:35;98446.38;;;11.75;51.43
3260;BME280;68938;48.150;14.004;2023-05-09T03:56:02;98455.06;;;11.71;51.75
3260;BME280;68938;48.150;14.004;2023-05-09T03:58:29;98457.97;;;11.58;51.63
3260;BME280;68938;48.150;14.004;2023-05-09T04:00:56;98451.34;;;11.81;51.17
3260;BME280;68938;48.150;14.004;2023-05-09T04:03:23;98458.97;;;11.82;50.72
3260;BME280;68938;48.150;14.004;2023-05-09T04:05:50;98466.22;;;11.99;50.93
3260;BME280;68938;48.150;14.004;2023-05-09T04:08:19;98458.31;;;12.07;50.27
3260;BME280;68938;48.150;14.004;2023-05-09T04:10:46;98461.09;;;11.99;50.59
3260;BME280;68938;48.150;14.004;2023-05-09T04:13:15;98464.53;;;11.69;51.33
3260;BME280;68938;48.150;14.004;2023-05-09T04:15:42;98457.63;;;11.71;51.84
3260;BME280;68938;48.150;14.004;2023-05-09T04:18:09;98468.41;;;11.54;51.87
3260;BME280;68938;48.150;14.004;2023-05-09T04:20:36;98472.06;;;11.75;51.29
3260;BME280;68938;48.150;14.004;2023-05-09T04:23:02;98472.31;;;11.66;51.40
3260;BME280;68938;48.150;14.004;2023-05-09T04:25:29;98466.63;;;11.85;51.29
3260;BME280;68938;48.150;14.004;2023-05-09T04:27:57;98471.47;;;11.96;51.21
3260;BME280;68938;48.150;14.004;2023-05-09T04:30:23;98466.09;;;11.74;51.13
3260;BME280;68938;48.150;14.004;2023-05-09T04:32:50;98475.56;;;11.72;51.91
3260;BME280;68938;48.150;14.004;2023-05-09T04:35:18;98472.63;;;11.86;51.58
3260;BME280;68938;48.150;14.004;2023-05-09T04:37:47;98475.09;;;11.59;51.95
3260;BME280;68938;48.150;14.004;2023-05-09T04:40:14;98460.38;;;11.65;52.23
3260;BME280;68938;48.150;14.004;2023-05-09T04:42:40;98465.66;;;11.60;52.27
3260;BME280;68938;48.150;14.004;2023-05-09T04:45:08;98463.03;;;11.61;51.91
3260;BME280;68938;48.150;14.004;2023-05-09T04:47:35;98459.28;;;11.73;51.95
3260;BME280;68938;48.150;14.004;2023-05-09T04:50:02;98463.06;;;11.91;51.37
3260;BME280;68938;48.150;14.004;2023-05-09T04:52:29;98463.53;;;11.74;51.51
3260;BME280;68938;48.150;14.004;2023-05-09T04:54:56;98459.94;;;11.80;51.63
3260;BME280;68938;48.150;14.004;2023-05-09T04:57:23;98456.88;;;11.67;51.81
3260;BME280;68938;48.150;14.004;2023-05-09T04:59:50;98459.75;;;11.86;51.05
3260;BME280;68938;48.150;14.004;2023-05-09T05:02:17;98466.53;;;11.90;51.90
3260;BME280;68938;48.150;14.004;2023-05-09T05:04:44;98474.59;;;12.06;51.26
3260;BME280;68938;48.150;14.004;2023-05-09T05:07:11;98463.44;;;11.77;51.34
3260;BME280;68938;48.150;14.004;2023-05-09T05:09:37;98463.19;;;11.26;52.96
3260;BME280;68938;48.150;14.004;2023-05-09T05:12:04;98463.88;;;11.32;52.95
3260;BME280;68938;48.150;14.004;2023-05-09T05:14:34;98461.91;;;11.41;53.94
3260;BME280;68938;48.150;14.004;2023-05-09T05:17:01;98461.91;;;11.41;53.94
3260;BME280;68938;48.150;14.004;2023-05-09T05:19:28;98463.47;;;11.76;52.85
3260;BME280;68938;48.150;14.004;2023-05-09T05:21:55;98458.22;;;11.79;52.59
3260;BME280;68938;48.150;14.004;2023-05-09T05:24:22;98463.97;;;11.89;52.37
3260;BME280;68938;48.150;14.004;2023-05-09T05:26:49;98459.69;;;12.17;52.29
3260;BME280;68938;48.150;14.004;2023-05-09T05:29:16;98460.66;;;12.13;51.65
3260;BME280;68938;48.150;14.004;2023-05-09T05:31:43;98460.44;;;12.21;51.74
3260;BME280;68938;48.150;14.004;2023-05-09T05:34:09;98463.28;;;12.12;52.44
3260;BME280;68938;48.150;14.004;2023-05-09T05:36:36;98462.31;;;12.16;51.66
3260;BME280;68938;48.150;14.004;2023-05-09T05:39:03;98455.84;;;12.02;52.09
3260;BME280;68938;48.150;14.004;2023-05-09T05:41:30;98458.41;;;12.30;51.48
3260;BME280;68938;48.150;14.004;2023-05-09T05:43:57;98463.78;;;12.23;51.45
3260;BME280;68938;48.150;14.004;2023-05-09T05:46:24;98461.94;;;12.28;51.45
3260;BME280;68938;48.150;14.004;2023-05-09T05:48:51;98463.75;;;12.51;50.69
3260;BME280;68938;48.150;14.004;2023-05-09T05:51:17;98471.97;;;12.62;50.96
3260;BME280;68938;48.150;14.004;2023-05-09T05:53:44;98462.53;;;12.63;51.11
3260;BME280;68938;48.150;14.004;2023-05-09T05:56:11;98464.91;;;12.94;50.68
3260;BME280;68938;48.150;14.004;2023-05-09T05:58:38;98469.69;;;12.79;50.18
3260;BME280;68938;48.150;14.004;2023-05-09T06:01:05;98454.13;;;12.31;51.29
3260;BME280;68938;48.150;14.004;2023-05-09T06:03:32;98449.19;;;12.23;52.96
3260;BME280;68938;48.150;14.004;2023-05-09T06:05:59;98459.66;;;12.45;52.37
3260;BME280;68938;48.150;14.004;2023-05-09T06:08:26;98449.72;;;12.35;51.97
3260;BME280;68938;48.150;14.004;2023-05-09T06:10:53;98454.59;;;12.42;52.48
3260;BME280;68938;48.150;14.004;2023-05-09T06:13:20;98458.94;;;12.40;51.68
3260;BME280;68938;48.150;14.004;2023-05-09T06:15:47;98444.53;;;12.61;51.61
3260;BME280;68938;48.150;14.004;2023-05-09T06:18:14;98440.78;;;12.71;51.23
3260;BME280;68938;48.150;14.004;2023-05-09T06:20:41;98451.56;;;12.83;51.30
3260;BME280;68938;48.150;14.004;2023-05-09T06:23:08;98444.56;;;12.86;50.56
3260;BME280;68938;48.150;14.004;2023-05-09T06:25:35;98440.84;;;12.95;50.67
3260;BME280;68938;48.150;14.004;2023-05-09T06:28:02;98428.03;;;12.93;51.06
3260;BME280;68938;48.150;14.004;2023-05-09T06:30:29;98427.75;;;13.49;50.76
3260;BME280;68938;48.150;14.004;2023-05-09T06:32:56;98430.56;;;13.89;49.36
3260;BME280;68938;48.150;14.004;2023-05-09T06:35:24;98427.94;;;14.12;48.84
3260;BME280;68938;48.150;14.004;2023-05-09T06:37:50;98422.09;;;14.07;48.56
3260;BME280;68938;48.150;14.004;2023-05-09T06:40:17;98415.91;;;14.11;48.02
3260;BME280;68938;48.150;14.004;2023-05-09T06:42:44;98411.66;;;14.10;47.57
3260;BME280;68938;48.150;14.004;2023-05-09T06:45:12;98406.44;;;14.12;48.04
3260;BME280;68938;48.150;14.004;2023-05-09T06:47:39;98416.19;;;14.05;47.69
3260;BME280;68938;48.150;14.004;2023-05-09T06:50:07;98416.09;;;14.29;47.68
3260;BME280;68938;48.150;14.004;2023-05-09T06:52:34;98408.72;;;14.19;47.97
3260;BME280;68938;48.150;14.004;2023-05-09T06:55:02;98410.31;;;14.22;49.96
3260;BME280;68938;48.150;14.004;2023-05-09T06:57:29;98410.00;;;14.09;49.39
3260;BME280;68938;48.150;14.004;2023-05-09T06:59:56;98404.75;;;14.33;49.04
3260;BME280;68938;48.150;14.004;2023-05-09T07:02:23;98396.28;;;14.72;47.74
3260;BME280;68938;48.150;14.004;2023-05-09T07:04:50;98397.78;;;14.77;46.84
3260;BME280;68938;48.150;14.004;2023-05-09T07:07:17;98402.72;;;14.82;47.66
3260;BME280;68938;48.150;14.004;2023-05-09T07:09:44;98405.69;;;14.52;47.44
3260;BME280;68938;48.150;14.004;2023-05-09T07:12:11;98397.94;;;14.93;47.32
3260;BME280;68938;48.150;14.004;2023-05-09T07:14:38;98403.19;;;14.71;46.89
3260;BME280;68938;48.150;14.004;2023-05-09T07:17:05;98406.84;;;14.65;47.80
3260;BME280;68938;48.150;14.004;2023-05-09T07:19:48;98401.31;;;14.54;47.63
3260;BME280;68938;48.150;14.004;2023-05-09T07:22:16;98388.31;;;14.97;48.02
3260;BME280;68938;48.150;14.004;2023-05-09T07:24:43;98385.03;;;14.93;47.59
3260;BME280;68938;48.150;14.004;2023-05-09T07:27:10;98384.72;;;14.80;46.81
3260;BME280;68938;48.150;14.004;2023-05-09T07:29:37;98382.47;;;15.31;46.44
3260;BME280;68938;48.150;14.004;2023-05-09T07:32:04;98383.47;;;15.47;47.07
3260;BME280;68938;48.150;14.004;2023-05-09T07:34:31;98378.31;;;15.66;46.18
3260;BME280;68938;48.150;14.004;2023-05-09T07:36:58;98371.56;;;15.24;46.71
3260;BME280;68938;48.150;14.004;2023-05-09T07:39:25;98372.28;;;15.47;46.26
3260;BME280;68938;48.150;14.004;2023-05-09T07:41:52;98368.28;;;15.58;46.16
3260;BME280;68938;48.150;14.004;2023-05-09T07:44:19;98359.41;;;15.45;45.97
3260;BME280;68938;48.150;14.004;2023-05-09T07:46:46;98356.97;;;15.61;47.06
3260;BME280;68938;48.150;14.004;2023-05-09T07:49:13;98361.53;;;15.37;46.52
3260;BME280;68938;48.150;14.004;2023-05-09T07:51:39;98354.53;;;15.77;46.40
3260;BME280;68938;48.150;14.004;2023-05-09T07:54:07;98341.50;;;15.97;45.14
3260;BME280;68938;48.150;14.004;2023-05-09T07:56:34;98346.81;;;16.11;45.60
3260;BME280;68938;48.150;14.004;2023-05-09T07:59:01;98334.19;;;16.40;44.93
3260;BME280;68938;48.150;14.004;2023-05-09T08:01:28;98333.44;;;16.71;44.83
3260;BME280;68938;48.150;14.004;2023-05-09T08:03:55;98337.22;;;16.99;44.85
3260;BME280;68938;48.150;14.004;2023-05-09T08:06:22;98331.72;;;17.05;44.47
3260;BME280;68938;48.150;14.004;2023-05-09T08:08:49;98336.69;;;16.76;43.42
3260;BME280;68938;48.150;14.004;2023-05-09T08:11:15;98330.66;;;16.76;43.67
3260;BME280;68938;48.150;14.004;2023-05-09T08:13:42;98328.00;;;16.43;44.73
3260;BME280;68938;48.150;14.004;2023-05-09T08:16:09;98324.81;;;16.55;45.38
3260;BME280;68938;48.150;14.004;2023-05-09T08:18:36;98316.41;;;16.67;44.32
3260;BME280;68938;48.150;14.004;2023-05-09T08:21:03;98314.25;;;16.93;44.60
3260;BME280;68938;48.150;14.004;2023-05-09T08:23:30;98314.63;;;17.34;43.39
3260;BME280;68938;48.150;14.004;2023-05-09T08:25:57;98306.69;;;17.67;43.65
3260;BME280;68938;48.150;14.004;2023-05-09T08:28:24;98304.97;;;17.52;42.66
3260;BME280;68938;48.150;14.004;2023-05-09T08:30:51;98299.03;;;17.66;42.64
3260;BME280;68938;48.150;14.004;2023-05-09T08:33:18;98310.16;;;17.68;42.62
3260;BME280;68938;48.150;14.004;2023-05-09T08:35:49;98301.72;;;17.64;44.55
3260;BME280;68938;48.150;14.004;2023-05-09T08:38:19;98302.06;;;17.58;43.30
3260;BME280;68938;48.150;14.004;2023-05-09T08:40:46;98305.53;;;17.73;44.38
3260;BME280;68938;48.150;14.004;2023-05-09T08:43:15;98302.53;;;17.81;42.87
3260;BME280;68938;48.150;14.004;2023-05-09T08:45:49;98287.22;;;17.92;42.60
3260;BME280;68938;48.150;14.004;2023-05-09T08:48:17;98277.22;;;18.00;42.76
3260;BME280;68938;48.150;14.004;2023-05-09T08:50:45;98282.75;;;18.38;42.42
3260;BME280;68938;48.150;14.004;2023-05-09T08:53:12;98285.81;;;18.59;41.56
3260;BME280;68938;48.150;14.004;2023-05-09T08:55:39;98282.84;;;18.22;42.11
3260;BME280;68938;48.150;14.004;2023-05-09T08:58:08;98285.59;;;18.19;41.53
3260;BME280;68938;48.150;14.004;2023-05-09T09:00:36;98286.94;;;18.69;42.43
3260;BME280;68938;48.150;14.004;2023-05-09T09:03:05;98272.56;;;18.92;41.17
3260;BME280;68938;48.150;14.004;2023-05-09T09:05:36;98281.22;;;19.34;41.35
3260;BME280;68938;48.150;14.004;2023-05-09T09:08:08;98269.75;;;19.51;39.65
3260;BME280;68938;48.150;14.004;2023-05-09T09:10:39;98267.56;;;19.58;40.03
3260;BME280;68938;48.150;14.004;2023-05-09T09:13:09;98263.16;;;19.18;40.77
3260;BME280;68938;48.150;14.004;2023-05-09T09:15:37;98265.22;;;19.40;40.65
3260;BME280;68938;48.150;14.004;2023-05-09T09:18:08;98258.38;;;19.67;40.02
3260;BME280;68938;48.150;14.004;2023-05-09T09:20:44;98254.75;;;19.82;40.29
3260;BME280;68938;48.150;14.004;2023-05-09T09:23:17;98247.81;;;19.28;40.77
3260;BME280;68938;48.150;14.004;2023-05-09T09:25:46;98255.63;;;19.14;41.29
3260;BME280;68938;48.150;14.004;2023-05-09T09:28:14;98241.31;;;18.94;40.84
3260;BME280;68938;48.150;14.004;2023-05-09T09:30:46;98240.72;;;19.30;41.36
3260;BME280;68938;48.150;14.004;2023-05-09T09:33:21;98235.63;;;19.56;41.17
3260;BME280;68938;48.150;14.004;2023-05-09T09:35:51;98238.00;;;19.73;40.60
3260;BME280;68938;48.150;14.004;2023-05-09T09:38:20;98231.25;;;19.56;40.75
3260;BME280;68938;48.150;14.004;2023-05-09T09:40:56;98234.13;;;19.66;40.02
3260;BME280;68938;48.150;14.004;2023-05-09T09:43:31;98235.31;;;19.60;40.74
3260;BME280;68938;48.150;14.004;2023-05-09T09:46:02;98238.44;;;19.53;41.63
3260;BME280;68938;48.150;14.004;2023-05-09T09:48:34;98223.03;;;20.02;40.50
3260;BME280;68938;48.150;14.004;2023-05-09T09:51:08;98227.81;;;19.96;40.25
3260;BME280;68938;48.150;14.004;2023-05-09T09:53:40;98223.38;;;20.10;39.26
3260;BME280;68938;48.150;14.004;2023-05-09T09:56:08;98212.88;;;19.72;39.17
3260;BME280;68938;48.150;14.004;2023-05-09T09:58:36;98217.19;;;19.99;39.06
3260;BME280;68938;48.150;14.004;2023-05-09T10:01:11;98212.63;;;20.28;40.28
3260;BME280;68938;48.150;14.004;2023-05-09T10:03:40;98199.41;;;20.31;38.89
3260;BME280;68938;48.150;14.004;2023-05-09T10:06:14;98199.06;;;20.48;39.63
3260;BME280;68938;48.150;14.004;2023-05-09T10:08:43;98184.84;;;20.78;38.81
3260;BME280;68938;48.150;14.004;2023-05-09T10:11:11;98188.72;;;20.72;39.35
3260;BME280;68938;48.150;14.004;2023-05-09T10:13:38;98180.81;;;21.22;39.02
3260;BME280;68938;48.150;14.004;2023-05-09T10:16:07;98168.91;;;21.55;37.01
3260;BME280;68938;48.150;14.004;2023-05-09T10:18:35;98172.38;;;21.66;39.18
3260;BME280;68938;48.150;14.004;2023-05-09T10:21:02;98167.31;;;21.87;37.01
3260;BME280;68938;48.150;14.004;2023-05-09T10:23:33;98162.78;;;21.78;37.08
3260;BME280;68938;48.150;14.004;2023-05-09T10:29:09;98152.59;;;21.86;37.03
3260;BME280;68938;48.150;14.004;2023-05-09T10:31:38;98140.56;;;21.72;36.09
3260;BME280;68938;48.150;14.004;2023-05-09T10:34:09;98145.28;;;21.67;38.68
3260;BME280;68938;48.150;14.004;2023-05-09T10:36:36;98139.41;;;21.76;37.65
3260;BME280;68938;48.150;14.004;2023-05-09T10:39:03;98140.72;;;21.71;37.48
3260;BME280;68938;48.150;14.004;2023-05-09T10:41:31;98126.19;;;21.56;36.84
3260;BME280;68938;48.150;14.004;2023-05-09T10:43:58;98125.03;;;21.71;38.21
3260;BME280;68938;48.150;14.004;2023-05-09T10:46:26;98123.16;;;22.07;37.62
3260;BME280;68938;48.150;14.004;2023-05-09T10:48:54;98114.50;;;22.29;36.43
3260;BME280;68938;48.150;14.004;2023-05-09T10:51:22;98106.50;;;22.64;37.75
3260;BME280;68938;48.150;14.004;2023-05-09T10:53:50;98112.94;;;22.48;36.04
3260;BME280;68938;48.150;14.004;2023-05-09T10:56:37;98098.91;;;22.61;37.91
3260;BME280;68938;48.150;14.004;2023-05-09T10:59:04;98098.66;;;22.64;36.33
3260;BME280;68938;48.150;14.004;2023-05-09T11:01:38;98092.44;;;22.33;36.42
3260;BME280;68938;48.150;14.004;2023-05-09T11:04:10;98084.78;;;22.52;36.07
3260;BME280;68938;48.150;14.004;2023-05-09T11:11:55;98091.00;;;21.95;38.45
3260;BME280;68938;48.150;14.004;2023-05-09T11:14:44;98079.44;;;21.64;37.23
3260;BME280;68938;48.150;14.004;2023-05-09T11:22:22;98062.09;;;21.40;38.15
3260;BME280;68938;48.150;14.004;2023-05-09T11:24:51;98052.38;;;21.18;38.50
3260;BME280;68938;48.150;14.004;2023-05-09T11:27:48;98047.28;;;21.52;39.69
3260;BME280;68938;48.150;14.004;2023-05-09T11:30:17;98055.91;;;21.41;39.53
3260;BME280;68938;48.150;14.004;2023-05-09T11:32:52;98039.09;;;21.57;38.57
3260;BME280;68938;48.150;14.004;2023-05-09T11:35:22;98038.88;;;21.82;38.62
3260;BME280;68938;48.150;14.004;2023-05-09T11:40:25;98023.78;;;22.19;39.05
3260;BME280;68938;48.150;14.004;2023-05-09T11:42:55;98026.03;;;22.13;39.41
3260;BME280;68938;48.150;14.004;2023-05-09T11:45:26;98022.94;;;22.30;39.51
3260;BME280;68938;48.150;14.004;2023-05-09T11:47:58;98014.47;;;22.38;38.67
3260;BME280;68938;48.150;14.004;2023-05-09T11:50:25;98015.44;;;22.37;38.02
3260;BME280;68938;48.150;14.004;2023-05-09T11:52:53;98009.19;;;21.83;38.41
3260;BME280;68938;48.150;14.004;2023-05-09T11:55:21;97999.59;;;21.95;38.40
3260;BME280;68938;48.150;14.004;2023-05-09T11:57:50;97998.97;;;22.03;39.18
3260;BME280;68938;48.150;14.004;2023-05-09T12:00:20;97996.56;;;22.22;38.19
3260;BME280;68938;48.150;14.004;2023-05-09T12:02:49;97995.38;;;22.26;38.53
3260;BME280;68938;48.150;14.004;2023-05-09T12:05:19;97991.38;;;22.54;39.20
3260;BME280;68938;48.150;14.004;2023-05-09T12:07:47;97992.91;;;22.57;38.36
3260;BME280;68938;48.150;14.004;2023-05-09T12:10:20;97984.84;;;22.81;38.77
3260;BME280;68938;48.150;14.004;2023-05-09T12:12:50;97975.81;;;23.06;37.66
3260;BME280;68938;48.150;14.004;2023-05-09T12:15:18;97972.59;;;22.81;37.64
3260;BME280;68938;48.150;14.004;2023-05-09T12:17:46;97974.09;;;22.95;38.77
3260;BME280;68938;48.150;14.004;2023-05-09T12:20:17;97966.53;;;22.60;36.96
3260;BME280;68938;48.150;14.004;2023-05-09T12:22:51;97973.84;;;22.66;38.33
3260;BME280;68938;48.150;14.004;2023-05-09T12:25:18;97955.28;;;22.69;37.11
3260;BME280;68938;48.150;14.004;2023-05-09T12:27:45;97953.97;;;22.75;38.50
3260;BME280;68938;48.150;14.004;2023-05-09T12:30:12;97947.00;;;22.64;37.41
3260;BME280;68938;48.150;14.004;2023-05-09T12:32:40;97950.22;;;22.67;39.64
3260;BME280;68938;48.150;14.004;2023-05-09T12:35:08;97944.72;;;22.91;37.54
3260;BME280;68938;48.150;14.004;2023-05-09T12:37:37;97938.19;;;22.86;37.67
3260;BME280;68938;48.150;14.004;2023-05-09T12:40:11;97937.34;;;22.97;37.92
3260;BME280;68938;48.150;14.004;2023-05-09T12:42:41;97936.13;;;23.22;37.71
3260;BME280;68938;48.150;14.004;2023-05-09T12:45:10;97921.44;;;22.88;37.54
3260;BME280;68938;48.150;14.004;2023-05-09T12:47:37;97928.72;;;23.06;36.90
3260;BME280;68938;48.150;14.004;2023-05-09T12:50:05;97911.66;;;22.90;37.37
3260;BME280;68938;48.150;14.004;2023-05-09T12:52:38;97898.97;;;23.07;37.21
3260;BME280;68938;48.150;14.004;2023-05-09T12:55:24;97896.72;;;23.23;37.51
3260;BME280;68938;48.150;14.004;2023-05-09T12:57:59;97882.63;;;23.14;37.05
3260;BME280;68938;48.150;14.004;2023-05-09T13:00:28;97884.19;;;23.27;36.61
3260;BME280;68938;48.150;14.004;2023-05-09T13:03:25;97890.88;;;23.10;36.92
3260;BME280;68938;48.150;14.004;2023-05-09T13:05:57;97881.06;;;23.33;36.67
3260;BME280;68938;48.150;14.004;2023-05-09T13:08:28;97855.97;;;23.30;36.50
3260;BME280;68938;48.150;14.004;2023-05-09T13:10:55;97859.78;;;23.67;36.42
3260;BME280;68938;48.150;14.004;2023-05-09T13:13:41;97844.50;;;23.72;35.06
3260;BME280;68938;48.150;14.004;2023-05-09T13:16:08;97848.53;;;23.85;35.92
3260;BME280;68938;48.150;14.004;2023-05-09T13:18:38;97851.44;;;24.02;36.16
3260;BME280;68938;48.150;14.004;2023-05-09T13:21:05;97833.78;;;23.94;36.70
3260;BME280;68938;48.150;14.004;2023-05-09T13:23:31;97826.06;;;23.83;34.84
3260;BME280;68938;48.150;14.004;2023-05-09T13:25:58;97825.38;;;24.20;35.22
3260;BME280;68938;48.150;14.004;2023-05-09T13:28:25;97819.72;;;24.05;34.84
3260;BME280;68938;48.150;14.004;2023-05-09T13:30:52;97817.34;;;24.41;34.74